M I D A S
Marine Information and Data Acquisition System
Tripno 1781 of the Zeeleeuw from 2009-09-21 06:46:06 to 2009-09-21 15:45:26
Back to CruiseResearch ActivitiesStationsMapUnderway DataData graphs

EquipmentUnitsComment
TimeDGPSUTC
LatitudeDGPSDM.mWGS84
LongitudeDGPSDM.mWGS84
TemperatureSBE03/SBE38deg celciusITS90
ConductivitySBE21S/mITS90
SalinitySBE21 Practical Salinity Units
ChlorophylAChelsea fluorimeterg/lCalibrated in Aceton
Missing or incorrect values are displayed as -999
Sea surface data collected by the RV Zeeleeuw from 2009-09-21 06:50:00 to 2009-09-21 15:55:05
Time Latitude Longitude Temperature Conductivity Salinity ChlorophylA
2009-09-21 06:51:09 51°13.679 2°55.887 19.1171 0.027698 0.144325 8.158158
2009-09-21 06:52:09 51°13.693 2°55.794 19.1314 0.027698 0.144341 8.158158
2009-09-21 06:53:08 51°13.694 2°55.739 19.1497 0.027698 0.144355 8.158158
2009-09-21 06:54:06 51°13.709 2°55.743 19.1041 0.027698 0.144375 8.158158
2009-09-21 06:55:05 51°13.707 2°55.737 19.1595 0.027698 0.144391 8.158158
2009-09-21 06:56:05 51°13.758 2°55.69 19.1063 0.027698 0.144418 8.158158
2009-09-21 06:57:05 51°13.829 2°55.634 19.0785 0.027698 0.14445 8.158158
2009-09-21 06:58:05 51°13.886 2°55.625 19.1313 0.027698 0.144466 8.158158
2009-09-21 06:59:05 51°13.926 2°55.635 19.149 0.027698 0.144477 8.158158
2009-09-21 07:00:05 51°13.954 2°55.633 19.1583 0.027698 0.144493 8.158158
2009-09-21 07:01:06 51°13.953 2°55.635 19.1662 0.027698 0.144507 8.123334
2009-09-21 07:02:05 51°13.95 2°55.636 19.1608 0.027698 0.144521 8.158158
2009-09-21 07:03:05 51°13.949 2°55.636 19.1914 0.027698 0.14453 8.123334
2009-09-21 07:04:05 51°13.993 2°55.592 19.1791 0.027698 0.144541 8.158158
2009-09-21 07:05:05 51°14.096 2°55.471 19.13 0.027698 0.144561 8.123334
2009-09-21 07:06:05 51°14.222 2°55.308 19.1344 0.027698 0.144577 8.123334
2009-09-21 07:07:05 51°14.337 2°55.103 19.1729 0.027698 0.144591 8.123334
2009-09-21 07:08:05 51°14.465 2°54.893 19.1499 0.027698 0.1446 8.158158
2009-09-21 07:09:05 51°14.621 2°54.717 19.1615 0.027698 0.144598 8.192982
2009-09-21 07:10:05 51°14.777 2°54.547 19.1682 0.027698 0.144607 8.192982
2009-09-21 07:11:05 51°14.937 2°54.395 19.1688 0.027698 0.144639 8.158158
2009-09-21 07:12:05 51°15.096 2°54.249 19.151 0.027698 0.144684 8.192982
2009-09-21 07:13:05 51°15.258 2°54.097 19.1727 0.027698 0.144771 8.192982
2009-09-21 07:14:05 51°15.42 2°53.944 19.1449 0.027698 0.144837 8.158158
2009-09-21 07:15:05 51°15.582 2°53.789 19.1706 0.027698 0.144899 8.158158
2009-09-21 07:16:05 51°15.747 2°53.633 19.1946 0.027698 0.145036 8.158158
2009-09-21 07:17:05 51°15.912 2°53.478 19.195 0.027595 0.144607 8.192982
2009-09-21 07:18:05 51°16.079 2°53.325 19.187 0.027595 0.144669 8.158158
2009-09-21 07:19:05 51°16.245 2°53.17 19.2032 0.027595 0.144719 8.158158
2009-09-21 07:20:05 51°16.41 2°53.018 19.1841 0.027595 0.144806 8.158158
2009-09-21 07:21:05 51°16.575 2°52.87 19.2037 0.027595 0.144877 8.158158
2009-09-21 07:22:05 51°16.743 2°52.734 19.2201 0.027595 0.144935 8.192982
2009-09-21 07:23:05 51°16.91 2°52.612 19.21 0.027595 0.144965 8.158158
2009-09-21 07:24:05 51°17.08 2°52.506 19.2296 0.027595 0.144983 8.158158
2009-09-21 07:25:05 51°17.25 2°52.399 19.2426 0.027595 0.14502 8.158158
2009-09-21 07:26:05 51°17.421 2°52.29 19.2424 0.027595 0.145096 8.158158
2009-09-21 07:27:05 51°17.593 2°52.178 19.243 0.027595 0.14514 8.158158
2009-09-21 07:28:05 51°17.763 2°52.069 19.2671 0.027595 0.145175 8.158158
2009-09-21 07:29:05 51°17.934 2°51.958 19.2492 0.027595 0.145219 8.158158
2009-09-21 07:30:05 51°18.105 2°51.846 19.2686 0.027595 0.145242 8.158158
2009-09-21 07:31:05 51°18.279 2°51.732 19.2906 0.027595 0.145258 8.158158
2009-09-21 07:32:05 51°18.452 2°51.616 19.2806 0.027595 0.145286 8.158158
2009-09-21 07:33:05 51°18.626 2°51.498 19.2973 0.027595 0.145309 8.158158
2009-09-21 07:34:05 51°18.798 2°51.38 19.2974 0.027595 0.145325 8.158158
2009-09-21 07:35:05 51°18.97 2°51.261 19.3155 0.027595 0.145367 8.158158
2009-09-21 07:36:05 51°19.144 2°51.141 19.3213 0.027595 0.145404 8.158158
2009-09-21 07:37:05 51°19.316 2°51.018 19.3166 0.027595 0.14542 8.123334
2009-09-21 07:38:05 51°19.491 2°50.901 19.3325 0.027595 0.145441 8.123334
2009-09-21 07:39:05 51°19.666 2°50.782 19.3449 0.027595 0.145448 8.123334
2009-09-21 07:40:05 51°19.836 2°50.652 19.3595 0.027595 0.145481 8.123334
2009-09-21 07:41:05 51°20.008 2°50.523 19.3643 0.027595 0.145511 8.123334
2009-09-21 07:42:05 51°20.183 2°50.396 19.376 0.027595 0.145534 8.123334
2009-09-21 07:43:05 51°20.358 2°50.27 19.3783 0.027595 0.145565 8.123334
2009-09-21 07:44:05 51°20.53 2°50.144 19.3842 0.027595 0.145581 8.123334
2009-09-21 07:45:05 51°20.701 2°50.022 19.4068 0.027595 0.145602 8.123334
2009-09-21 07:46:05 51°20.872 2°49.901 19.3991 0.027595 0.145628 8.123334
2009-09-21 07:47:05 51°21.045 2°49.776 19.4144 0.027595 0.145656 8.123334
2009-09-21 07:48:05 51°21.219 2°49.652 19.4334 0.027595 0.145686 8.123334
2009-09-21 07:49:05 51°21.394 2°49.525 19.4453 0.027595 0.145709 8.08851
2009-09-21 07:50:05 51°21.568 2°49.39 19.454 0.027595 0.14574 8.08851
2009-09-21 07:51:05 51°21.744 2°49.256 19.4621 0.027595 0.145758 8.08851
2009-09-21 07:52:05 51°21.921 2°49.125 19.4667 0.027595 0.145775 8.08851
2009-09-21 07:53:05 51°22.1 2°48.996 19.4669 0.027595 0.145784 8.08851
2009-09-21 07:54:05 51°22.28 2°48.868 19.4695 0.027595 0.145807 8.08851
2009-09-21 07:55:06 51°22.46 2°48.741 19.4954 0.027595 0.145814 8.08851
2009-09-21 07:56:05 51°22.633 2°48.623 19.5121 0.027492 0.145279 8.08851
2009-09-21 07:57:05 51°22.806 2°48.506 19.5252 0.027595 0.145847 8.08851
2009-09-21 07:58:05 51°22.979 2°48.389 19.5186 0.027492 0.145325 8.053686
2009-09-21 07:59:05 51°23.154 2°48.274 19.556 0.027492 0.145337 8.053686
2009-09-21 08:00:05 51°23.325 2°48.147 19.569 0.027492 0.145363 8.053686
2009-09-21 08:01:05 51°23.497 2°48.018 19.5632 0.027492 0.145391 8.053686
2009-09-21 08:02:05 51°23.671 2°47.892 19.5926 0.027492 0.145414 8.053686
2009-09-21 08:03:05 51°23.844 2°47.763 19.5838 0.027492 0.145433 8.053686
2009-09-21 08:04:05 51°24.018 2°47.637 19.5889 0.027492 0.145458 8.053686
2009-09-21 08:05:05 51°24.191 2°47.51 19.6177 0.027492 0.145477 8.053686
2009-09-21 08:06:05 51°24.363 2°47.381 19.6154 0.027492 0.145496 8.053686
2009-09-21 08:07:05 51°24.536 2°47.253 19.6389 0.027492 0.145512 8.053686
2009-09-21 08:08:05 51°24.707 2°47.123 19.6545 0.027492 0.145535 8.053686
2009-09-21 08:09:05 51°24.878 2°46.991 19.6673 0.027492 0.145596 8.018862
2009-09-21 08:10:05 51°25.047 2°46.862 19.6754 0.027492 0.14565 8.053686
2009-09-21 08:11:05 51°25.216 2°46.735 19.6866 0.027492 0.145671 8.053686
2009-09-21 08:12:05 51°25.385 2°46.608 19.6822 0.027492 0.145706 8.018862
2009-09-21 08:13:05 51°25.554 2°46.48 19.7126 0.027492 0.145744 8.018862
2009-09-21 08:14:05 51°25.721 2°46.35 19.715 0.027492 0.145765 8.018862
2009-09-21 08:15:05 51°25.889 2°46.223 19.7131 0.027492 0.145796 8.018862
2009-09-21 08:16:05 51°26.058 2°46.1 19.7374 0.027492 0.145829 8.018862
2009-09-21 08:17:05 51°26.227 2°45.975 19.7277 0.027492 0.145869 8.018862
2009-09-21 08:18:05 51°26.398 2°45.851 19.7573 0.027492 0.145878 8.018862
2009-09-21 08:19:05 51°26.567 2°45.728 19.769 0.027492 0.145897 8.018862
2009-09-21 08:20:05 51°26.733 2°45.601 19.7679 0.027492 0.145928 8.018862
2009-09-21 08:21:06 51°26.902 2°45.469 19.784 0.027492 0.145991 7.984038
2009-09-21 08:22:05 51°27.065 2°45.339 19.7948 0.027492 0.145991 8.018862
2009-09-21 08:23:05 51°27.231 2°45.21 19.8142 0.027492 0.146005 8.018862
2009-09-21 08:24:05 51°27.396 2°45.075 19.8337 0.027492 0.14606 7.984038
2009-09-21 08:25:05 51°27.561 2°44.938 19.8401 0.027492 0.146093 7.984038
2009-09-21 08:26:05 51°27.729 2°44.808 19.8472 0.027492 0.146114 7.984038
2009-09-21 08:27:05 51°27.898 2°44.679 19.8616 0.027492 0.146149 7.984038
2009-09-21 08:28:05 51°28.068 2°44.548 19.8615 0.027492 0.14614 7.984038
2009-09-21 08:29:05 51°28.239 2°44.418 19.8823 0.027492 0.146157 7.984038
2009-09-21 08:30:05 51°28.408 2°44.283 19.8825 0.027492 0.146175 7.984038
2009-09-21 08:31:05 51°28.579 2°44.159 19.9026 0.027492 0.146197 7.984038
2009-09-21 08:32:05 51°28.749 2°44.041 19.9135 0.027492 0.146213 7.984038
2009-09-21 08:33:05 51°28.914 2°43.925 19.9143 0.027492 0.146244 7.984038
2009-09-21 08:34:05 51°29.077 2°43.806 19.9456 0.027492 0.146242 7.984038
2009-09-21 08:35:06 51°29.243 2°43.714 19.9499 0.027492 0.14632 8.018862
2009-09-21 08:36:06 51°29.409 2°43.701 19.9661 0.027492 0.146327 8.018862
2009-09-21 08:37:06 51°29.575 2°43.695 19.9601 0.027492 0.146367 8.018862
2009-09-21 08:38:06 51°29.739 2°43.712 19.9831 0.027492 0.146367 8.018862
2009-09-21 08:39:06 51°29.903 2°43.745 20.0026 0.027492 0.146375 8.018862
2009-09-21 08:40:06 51°30.061 2°43.804 20.0024 0.027492 0.146379 8.018862
2009-09-21 08:41:06 51°30.217 2°43.877 20.0226 0.027492 0.146401 8.018862
2009-09-21 08:42:06 51°30.369 2°43.971 20.026 0.027492 0.14641 8.018862
2009-09-21 08:43:06 51°30.519 2°44.061 20.0469 0.027492 0.146403 8.018862
2009-09-21 08:44:06 51°30.669 2°44.149 20.057 0.027492 0.146391 8.018862
2009-09-21 08:45:06 51°30.821 2°44.234 20.069 0.027492 0.146408 8.018862
2009-09-21 08:46:06 51°30.972 2°44.316 20.0755 0.027492 0.146441 8.018862
2009-09-21 08:47:06 51°31.125 2°44.401 20.0917 0.027492 0.146422 8.018862
2009-09-21 08:48:06 51°31.276 2°44.481 20.0922 0.027492 0.146429 8.018862
2009-09-21 08:49:07 51°31.43 2°44.56 20.1308 0.027492 0.146432 8.018862
2009-09-21 08:50:15 51°31.601 2°44.655 20.1374 0.027492 0.146446 8.018862
2009-09-21 08:51:15 51°31.753 2°44.734 20.1386 0.027492 0.146465 8.018862
2009-09-21 08:52:15 51°31.905 2°44.812 20.1552 0.027492 0.146477 8.018862
2009-09-21 08:53:15 51°32.057 2°44.892 20.1614 0.027492 0.146505 8.018862
2009-09-21 08:54:15 51°32.209 2°44.976 20.1862 0.027492 0.146496 8.018862
2009-09-21 08:55:16 51°32.363 2°45.066 20.1948 0.027595 0.147039 8.018862
2009-09-21 08:56:15 51°32.511 2°45.156 20.216 0.027595 0.147058 8.018862
2009-09-21 08:57:15 51°32.662 2°45.244 20.2224 0.027595 0.147077 8.018862
2009-09-21 08:58:15 51°32.815 2°45.326 20.2348 0.027595 0.147113 8.018862
2009-09-21 08:59:15 51°32.969 2°45.406 20.2428 0.027595 0.147087 8.018862
2009-09-21 09:00:15 51°33.123 2°45.487 20.2534 0.027595 0.147099 8.018862
2009-09-21 09:01:15 51°33.277 2°45.565 20.2639 0.027595 0.14712 8.018862
2009-09-21 09:02:15 51°33.43 2°45.645 20.2814 0.027595 0.147132 8.018862
2009-09-21 09:03:15 51°33.583 2°45.723 20.3029 0.027595 0.147139 8.018862
2009-09-21 09:04:15 51°33.735 2°45.803 20.3012 0.027595 0.14718 8.018862
2009-09-21 09:05:15 51°33.885 2°45.891 20.3175 0.027595 0.147173 8.018862
2009-09-21 09:06:16 51°34.034 2°45.989 20.331 0.027595 0.14717 8.018862
2009-09-21 09:07:15 51°34.18 2°46.075 20.3279 0.027595 0.147166 8.053686
2009-09-21 09:08:15 51°34.328 2°46.162 20.3542 0.027595 0.147182 8.018862
2009-09-21 09:09:15 51°34.474 2°46.257 20.3706 0.027595 0.14719 8.018862
2009-09-21 09:10:15 51°34.62 2°46.347 20.3818 0.027595 0.147178 8.018862
2009-09-21 09:11:16 51°34.77 2°46.436 20.3914 0.027595 0.14719 8.018862
2009-09-21 09:12:15 51°34.913 2°46.525 20.4013 0.027595 0.147187 8.018862
2009-09-21 09:13:15 51°35.059 2°46.614 20.4197 0.027595 0.147254 8.053686
2009-09-21 09:14:15 51°35.205 2°46.695 20.4216 0.027595 0.147226 8.053686
2009-09-21 09:15:15 51°35.352 2°46.775 20.4169 0.027595 0.147214 8.053686
2009-09-21 09:16:15 51°35.499 2°46.857 20.4552 0.027595 0.147204 8.018862
2009-09-21 09:17:15 51°35.645 2°46.942 20.4607 0.027595 0.147187 8.053686
2009-09-21 09:18:16 51°35.794 2°47.032 20.4731 0.027595 0.147206 8.053686
2009-09-21 09:19:15 51°35.935 2°47.122 20.4804 0.027595 0.147206 8.053686
2009-09-21 09:20:16 51°36.08 2°47.21 20.498 0.027595 0.147254 8.053686
2009-09-21 09:21:15 51°36.221 2°47.291 20.5194 0.027595 0.147242 8.053686
2009-09-21 09:22:16 51°36.365 2°47.378 20.518 0.027595 0.147223 8.053686
2009-09-21 09:23:15 51°36.506 2°47.462 20.5369 0.027698 0.147784 8.053686
2009-09-21 09:24:15 51°36.647 2°47.558 20.5532 0.027698 0.147808 8.053686
2009-09-21 09:25:15 51°36.787 2°47.657 20.5703 0.027698 0.147835 8.053686
2009-09-21 09:26:15 51°36.928 2°47.754 20.5827 0.027698 0.147815 8.053686
2009-09-21 09:27:16 51°37.074 2°47.845 20.5865 0.027698 0.147815 8.053686
2009-09-21 09:28:15 51°37.213 2°47.94 20.6092 0.027698 0.14781 8.053686
2009-09-21 09:29:16 51°37.352 2°48.053 20.6159 0.027698 0.147813 8.053686
2009-09-21 09:30:15 51°37.484 2°48.168 20.6276 0.027698 0.147822 8.053686
2009-09-21 09:31:16 51°37.622 2°48.287 20.6272 0.027698 0.147818 8.053686
2009-09-21 09:32:15 51°37.756 2°48.402 20.6618 0.027698 0.147917 8.053686
2009-09-21 09:33:16 51°37.892 2°48.522 20.6688 0.027698 0.147861 8.053686
2009-09-21 09:34:15 51°38.026 2°48.638 20.6793 0.027698 0.147885 8.053686
2009-09-21 09:35:15 51°38.164 2°48.752 20.6739 0.027801 0.148447 8.053686
2009-09-21 09:36:16 51°38.306 2°48.863 20.6991 0.027801 0.148488 8.08851
2009-09-21 09:37:15 51°38.443 2°48.972 20.7072 0.027698 0.147919 8.053686
2009-09-21 09:38:16 51°38.585 2°49.086 20.7256 0.027801 0.148478 8.053686
2009-09-21 09:39:15 51°38.724 2°49.194 20.7331 0.027698 0.148008 8.053686
2009-09-21 09:40:16 51°38.865 2°49.313 20.7507 0.027698 0.147975 8.08851
2009-09-21 09:41:16 51°39.005 2°49.422 20.743 0.027698 0.14796 8.053686
2009-09-21 09:42:16 51°39.147 2°49.53 20.7759 0.027698 0.147931 8.08851
2009-09-21 09:43:15 51°39.288 2°49.632 20.784 0.027801 0.148534 8.08851
2009-09-21 09:44:15 51°39.434 2°49.728 20.7989 0.027698 0.14795 8.08851
2009-09-21 09:45:15 51°39.582 2°49.816 20.8012 0.027698 0.147929 8.08851
2009-09-21 09:46:15 51°39.732 2°49.898 20.835 0.027698 0.147921 8.08851
2009-09-21 09:47:16 51°39.886 2°49.975 20.8407 0.027801 0.148512 8.08851
2009-09-21 09:48:15 51°40.032 2°50.056 20.8583 0.027801 0.148497 8.08851
2009-09-21 09:49:16 51°40.184 2°50.139 20.8654 0.027801 0.148497 8.123334
2009-09-21 09:50:16 51°40.333 2°50.222 20.8699 0.027904 0.149071 8.123334
2009-09-21 09:51:15 51°40.479 2°50.304 20.8928 0.027801 0.148519 8.123334
2009-09-21 09:52:16 51°40.631 2°50.392 20.908 0.027801 0.148553 8.08851
2009-09-21 09:53:15 51°40.78 2°50.473 20.9205 0.027801 0.148558 8.123334
2009-09-21 09:54:15 51°40.93 2°50.551 20.9152 0.027801 0.148575 8.123334
2009-09-21 09:55:15 51°41.078 2°50.639 20.9505 0.027801 0.148568 8.123334
2009-09-21 09:56:16 51°41.234 2°50.683 20.9583 0.028007 0.14968 8.123334
2009-09-21 09:57:15 51°41.391 2°50.622 20.9585 0.027801 0.148563 8.123334
2009-09-21 09:58:16 51°41.551 2°50.522 20.9772 0.027801 0.148621 8.158158
2009-09-21 09:59:15 51°41.7 2°50.404 20.9997 0.027801 0.148604 8.123334
2009-09-21 10:00:15 51°41.847 2°50.256 21.0061 0.027801 0.14859 8.158158
2009-09-21 10:01:15 51°41.995 2°50.111 21.0244 0.027698 0.148049 8.158158
2009-09-21 10:02:15 51°42.141 2°49.957 21.0173 0.027801 0.148619 8.158158
2009-09-21 10:03:16 51°42.284 2°49.783 21.0377 0.027904 0.149218 8.158158
2009-09-21 10:04:15 51°42.425 2°49.617 21.061 0.027801 0.148626 8.158158
2009-09-21 10:05:15 51°42.561 2°49.434 21.0693 0.027801 0.148619 8.158158
2009-09-21 10:06:16 51°42.679 2°49.199 21.0887 0.027904 0.149152 8.158158
2009-09-21 10:07:15 51°42.767 2°48.933 21.1072 0.027801 0.14858 8.192982
2009-09-21 10:08:15 51°42.855 2°48.66 21.1051 0.027698 0.148037 8.192982
2009-09-21 10:09:15 51°42.933 2°48.378 21.1424 0.028007 0.149781 8.192982
2009-09-21 10:10:15 51°42.91 2°48.062 21.1541 0.028007 0.149746 8.192982
2009-09-21 10:11:15 51°42.784 2°47.788 21.151 0.027801 0.148621 8.192982
2009-09-21 10:12:15 51°42.635 2°47.535 21.1528 0.027698 0.148052 8.192982
2009-09-21 10:13:15 51°42.473 2°47.301 21.1907 0.028007 0.14969 8.192982
2009-09-21 10:14:16 51°42.281 2°47.139 21.176 0.028212 0.150803 8.192982
2009-09-21 10:15:16 51°42.083 2°47.008 21.189 0.027801 0.148599 8.227806
2009-09-21 10:16:16 51°41.886 2°46.868 21.1943 0.027904 0.14914 8.227806
2009-09-21 10:17:15 51°41.693 2°46.725 21.194 0.027801 0.148624 8.227806
2009-09-21 10:18:15 51°41.497 2°46.578 21.1952 0.028109 0.150284 8.227806
2009-09-21 10:19:16 51°41.293 2°46.459 21.2368 0.027904 0.149176 8.227806
2009-09-21 10:20:15 51°41.093 2°46.355 21.2402 0.028007 0.149724 8.227806
2009-09-21 10:21:15 51°40.89 2°46.247 21.2685 0.027801 0.148633 8.26263
2009-09-21 10:22:16 51°40.683 2°46.135 21.2638 0.027904 0.149189 8.26263
2009-09-21 10:23:16 51°40.481 2°46.026 21.2452 0.027904 0.149169 8.26263
2009-09-21 10:24:16 51°40.278 2°45.91 21.2988 0.028212 0.150837 8.227806
2009-09-21 10:25:16 51°40.074 2°45.8 21.3143 0.027904 0.149176 8.26263
2009-09-21 10:26:16 51°39.871 2°45.693 21.3134 0.027904 0.149176 8.26263
2009-09-21 10:27:16 51°39.67 2°45.58 21.307 0.027904 0.149184 8.26263
2009-09-21 10:28:15 51°39.47 2°45.467 21.3365 0.028212 0.150842 8.297454
2009-09-21 10:29:15 51°39.265 2°45.365 21.3693 0.028007 0.149729 8.26263
2009-09-21 10:30:15 51°39.061 2°45.262 21.368 0.028212 0.150845 8.26263
2009-09-21 10:31:16 51°38.851 2°45.16 21.3867 0.027904 0.149193 8.297454
2009-09-21 10:32:15 51°38.646 2°45.081 21.3613 0.027904 0.149193 8.26263
2009-09-21 10:33:16 51°38.433 2°45.013 21.4149 0.028212 0.150855 8.297454
2009-09-21 10:34:15 51°38.227 2°44.946 21.377 0.027904 0.149191 8.297454
2009-09-21 10:35:16 51°38.014 2°44.875 21.3959 0.028007 0.149744 8.297454
2009-09-21 10:36:15 51°37.808 2°44.803 21.4312 0.027904 0.149184 8.26263
2009-09-21 10:37:16 51°37.596 2°44.719 21.4581 0.028521 0.152495 8.297454
2009-09-21 10:38:15 51°37.393 2°44.639 21.4634 0.028007 0.149729 8.297454
2009-09-21 10:39:15 51°37.185 2°44.553 21.4633 0.028109 0.150282 8.332278
2009-09-21 10:40:16 51°36.974 2°44.464 21.4779 0.028315 0.151383 8.332278
2009-09-21 10:41:16 51°36.767 2°44.379 21.4891 0.027904 0.149169 8.332278
2009-09-21 10:42:16 51°36.561 2°44.283 21.4661 0.028007 0.149736 8.332278
2009-09-21 10:43:15 51°36.359 2°44.188 21.5291 0.028315 0.151383 8.332278
2009-09-21 10:44:16 51°36.151 2°44.087 21.4894 0.028007 0.149719 8.332278
2009-09-21 10:45:15 51°35.95 2°43.988 21.5315 0.028521 0.152477 8.332278
2009-09-21 10:46:16 51°35.743 2°43.885 21.5525 0.028007 0.149717 8.332278
2009-09-21 10:47:15 51°35.542 2°43.79 21.5489 0.028109 0.150265 8.332278
2009-09-21 10:48:16 51°35.337 2°43.686 21.5384 0.028212 0.150808 8.332278
2009-09-21 10:49:16 51°35.136 2°43.577 21.5908 0.027904 0.149145 8.332278
2009-09-21 10:50:16 51°34.936 2°43.469 21.5692 0.028109 0.15025 8.332278
2009-09-21 10:51:16 51°34.741 2°43.341 21.5937 0.028109 0.150252 8.332278
2009-09-21 10:52:21 51°34.529 2°43.199 21.5759 0.028109 0.15026 8.367102
2009-09-21 10:53:42 51°34.265 2°43.022 21.6395 0.028315 0.151356 8.367102
2009-09-21 10:54:42 51°34.067 2°42.889 21.6645 0.028007 0.149705 8.367102
2009-09-21 10:55:42 51°33.872 2°42.757 21.6377 0.028521 0.15245 8.367102
2009-09-21 10:56:42 51°33.675 2°42.626 21.6501 0.028418 0.151899 8.367102
2009-09-21 10:57:42 51°33.478 2°42.496 21.6452 0.028212 0.150793 8.367102
2009-09-21 10:58:42 51°33.281 2°42.362 21.6698 0.028624 0.153001 8.367102
2009-09-21 10:59:42 51°33.083 2°42.226 21.6998 0.028212 0.150781 8.367102
2009-09-21 11:00:42 51°32.899 2°42.06 21.7132 0.028315 0.151316 8.367102
2009-09-21 11:01:42 51°32.742 2°41.83 21.6942 0.028624 0.153001 8.367102
2009-09-21 11:02:42 51°32.594 2°41.585 21.6896 0.028109 0.150238 8.367102
2009-09-21 11:03:42 51°32.477 2°41.307 21.7357 0.028521 0.152432 8.367102
2009-09-21 11:04:42 51°32.377 2°41.012 21.7433 0.028109 0.150233 8.401926
2009-09-21 11:05:42 51°32.301 2°40.715 21.745 0.028521 0.152402 8.401926
2009-09-21 11:06:42 51°32.328 2°40.414 21.77 0.028521 0.152437 8.401926
2009-09-21 11:07:42 51°32.402 2°40.136 21.7044 0.028109 0.150235 8.401926
2009-09-21 11:08:42 51°32.533 2°39.99 21.7771 0.028727 0.153516 8.401926
2009-09-21 11:09:42 51°32.684 2°40.037 21.7803 0.028418 0.151906 8.401926
2009-09-21 11:10:42 51°32.83 2°40.13 21.8 0.028418 0.151926 8.401926
2009-09-21 11:11:42 51°32.976 2°40.226 21.8241 0.028727 0.153594 8.401926
2009-09-21 11:12:42 51°33.131 2°40.283 21.8168 0.028315 0.151396 8.43675
2009-09-21 11:13:42 51°33.289 2°40.328 21.8245 0.028624 0.153033 8.401926
2009-09-21 11:14:42 51°33.445 2°40.385 21.8388 0.028521 0.152495 8.43675
2009-09-21 11:15:42 51°33.601 2°40.446 21.818 0.028418 0.151951 8.43675
2009-09-21 11:16:42 51°33.757 2°40.503 21.8584 0.028212 0.15083 8.43675
2009-09-21 11:17:42 51°33.913 2°40.563 21.8443 0.028109 0.150289 8.43675
2009-09-21 11:18:42 51°34.068 2°40.635 21.8531 0.028212 0.150837 8.43675
2009-09-21 11:19:42 51°34.222 2°40.709 21.874 0.028315 0.151393 8.43675
2009-09-21 11:20:42 51°34.377 2°40.785 21.8934 0.028418 0.151951 8.43675
2009-09-21 11:21:42 51°34.533 2°40.858 21.9019 0.028624 0.153041 8.471574
2009-09-21 11:22:42 51°34.69 2°40.927 21.8775 0.028521 0.152497 8.471574
2009-09-21 11:23:42 51°34.846 2°40.997 21.9158 0.028315 0.151408 8.43675
2009-09-21 11:24:42 51°35.003 2°41.072 21.9059 0.028315 0.15141 8.471574
2009-09-21 11:25:42 51°35.159 2°41.15 21.9081 0.028315 0.151403 8.471574
2009-09-21 11:26:42 51°35.315 2°41.229 21.9459 0.028315 0.151413 8.471574
2009-09-21 11:27:42 51°35.47 2°41.319 21.9588 0.028007 0.149759 8.471574
2009-09-21 11:28:42 51°35.625 2°41.416 21.9655 0.028418 0.151959 8.471574
2009-09-21 11:29:42 51°35.783 2°41.512 21.9706 0.028521 0.152505 8.471574
2009-09-21 11:30:42 51°35.94 2°41.604 21.955 0.028109 0.150304 8.506398
2009-09-21 11:31:42 51°36.099 2°41.698 21.9982 0.028212 0.150855 8.506398
2009-09-21 11:32:42 51°36.257 2°41.795 22.018 0.028315 0.15141 8.506398
2009-09-21 11:33:42 51°36.415 2°41.888 22.0054 0.028212 0.15085 8.506398
2009-09-21 11:34:42 51°36.573 2°41.984 22.0242 0.028727 0.153612 8.506398
2009-09-21 11:35:42 51°36.731 2°42.077 22.0335 0.028624 0.153066 8.506398
2009-09-21 11:36:42 51°36.89 2°42.168 22.0461 0.028418 0.151956 8.506398
2009-09-21 11:37:42 51°37.047 2°42.253 22.0573 0.028418 0.151946 8.506398
2009-09-21 11:38:42 51°37.204 2°42.339 22.0584 0.028315 0.151393 8.541223
2009-09-21 11:39:42 51°37.36 2°42.427 22.0703 0.028109 0.150289 8.541223
2009-09-21 11:40:42 51°37.516 2°42.517 22.0927 0.028315 0.151388 8.541223
2009-09-21 11:41:42 51°37.673 2°42.604 22.0921 0.028418 0.151939 8.541223
2009-09-21 11:42:42 51°37.83 2°42.699 22.0966 0.028418 0.151931 8.541223
2009-09-21 11:43:42 51°37.988 2°42.788 22.1024 0.028521 0.152487 8.541223
2009-09-21 11:44:42 51°38.146 2°42.878 22.1104 0.028521 0.152487 8.541223
2009-09-21 11:45:42 51°38.304 2°42.969 22.1216 0.028521 0.152487 8.541223
2009-09-21 11:46:42 51°38.463 2°43.059 22.1406 0.028315 0.151388 8.576047
2009-09-21 11:47:42 51°38.623 2°43.142 22.1424 0.028109 0.150284 8.541223
2009-09-21 11:48:42 51°38.783 2°43.231 22.1741 0.028418 0.151941 8.576047
2009-09-21 11:49:42 51°38.944 2°43.32 22.1567 0.028521 0.152485 8.576047
2009-09-21 11:50:42 51°39.104 2°43.41 22.167 0.028624 0.153038 8.576047
2009-09-21 11:51:42 51°39.265 2°43.5 22.1872 0.028109 0.150297 8.576047
2009-09-21 11:52:42 51°39.426 2°43.584 22.1945 0.028212 0.150842 8.576047
2009-09-21 11:53:42 51°39.585 2°43.676 22.1879 0.028212 0.150842 8.576047
2009-09-21 11:54:45 51°39.754 2°43.771 22.197 0.028727 0.153594 8.576047
2009-09-21 11:55:46 51°39.92 2°43.862 22.2228 0.02883 0.154146 8.576047
2009-09-21 11:56:46 51°40.084 2°43.952 22.2226 0.028315 0.151391 8.610871
2009-09-21 11:57:46 51°40.248 2°44.043 22.2409 0.028212 0.15082 8.610871
2009-09-21 11:58:46 51°40.412 2°44.135 22.256 0.028521 0.152482 8.610871
2009-09-21 11:59:46 51°40.578 2°44.205 22.2623 0.02883 0.154146 8.610871
2009-09-21 12:00:46 51°40.752 2°44.237 22.2738 0.028418 0.151934 8.610871
2009-09-21 12:01:46 51°40.926 2°44.265 22.2456 0.028624 0.153033 8.610871
2009-09-21 12:02:46 51°41.099 2°44.303 22.297 0.028727 0.153592 8.610871
2009-09-21 12:03:46 51°41.273 2°44.331 22.3074 0.028624 0.153033 8.645695
2009-09-21 12:04:46 51°41.447 2°44.367 22.3036 0.028624 0.153038 8.610871
2009-09-21 12:05:46 51°41.622 2°44.403 22.3036 0.02883 0.154143 8.645695
2009-09-21 12:06:46 51°41.795 2°44.438 22.3218 0.028624 0.153031 8.645695
2009-09-21 12:07:46 51°41.967 2°44.478 22.3436 0.028521 0.152465 8.645695
2009-09-21 12:08:46 51°42.142 2°44.519 22.3128 0.028521 0.152477 8.645695
2009-09-21 12:09:46 51°42.317 2°44.559 22.3436 0.028933 0.154682 8.645695
2009-09-21 12:10:46 51°42.491 2°44.598 22.3362 0.028212 0.150813 8.645695
2009-09-21 12:11:46 51°42.665 2°44.638 22.3762 0.02883 0.154118 8.645695
2009-09-21 12:12:46 51°42.84 2°44.661 22.3876 0.029241 0.156359 8.680519
2009-09-21 12:13:46 51°43.011 2°44.597 22.3711 0.028727 0.153549 8.645695
2009-09-21 12:14:46 51°43.17 2°44.477 22.4031 0.028933 0.154656 8.680519
2009-09-21 12:15:46 51°43.315 2°44.316 22.4498 0.029653 0.158575 8.680519
2009-09-21 12:16:46 51°43.39 2°44.069 22.4437 0.028727 0.153549 8.680519
2009-09-21 12:17:46 51°43.366 2°43.789 22.4106 0.028315 0.151348 8.715343
2009-09-21 12:18:46 51°43.234 2°43.584 22.4567 0.029447 0.157408 8.750167
2009-09-21 12:19:46 51°43.051 2°43.496 22.4191 0.028109 0.150203 8.750167
2009-09-21 12:20:46 51°42.867 2°43.396 22.4701 0.028007 0.149648 8.750167
2009-09-21 12:21:46 51°42.689 2°43.277 22.4593 0.028109 0.150196 8.750167
2009-09-21 12:22:46 51°42.509 2°43.162 22.4668 0.028007 0.149643 8.750167
2009-09-21 12:23:46 51°42.327 2°43.053 22.4836 0.028109 0.150203 8.750167
2009-09-21 12:24:46 51°42.14 2°42.965 22.4756 0.028315 0.151316 8.750167
2009-09-21 12:25:46 51°41.953 2°42.884 22.4537 0.028007 0.149653 8.784991
2009-09-21 12:26:46 51°41.769 2°42.792 22.4979 0.028007 0.149631 8.750167
2009-09-21 12:27:46 51°41.585 2°42.697 22.5325 0.028007 0.149624 8.784991
2009-09-21 12:28:46 51°41.401 2°42.598 22.5305 0.028109 0.150181 8.784991
2009-09-21 12:29:46 51°41.218 2°42.504 22.5114 0.028109 0.150223 8.784991
2009-09-21 12:30:46 51°41.035 2°42.413 22.525 0.028007 0.149638 8.784991
2009-09-21 12:31:46 51°40.853 2°42.321 22.5465 0.028007 0.149651 8.819815
2009-09-21 12:32:46 51°40.671 2°42.224 22.5695 0.028007 0.149648 8.784991
2009-09-21 12:33:46 51°40.489 2°42.132 22.5408 0.028007 0.149646 8.819815
2009-09-21 12:34:46 51°40.308 2°42.044 22.54 0.028007 0.149656 8.819815
2009-09-21 12:35:46 51°40.128 2°41.957 22.5651 0.028007 0.149626 8.819815
2009-09-21 12:36:46 51°39.948 2°41.866 22.5706 0.028109 0.150216 8.819815
2009-09-21 12:37:46 51°39.769 2°41.767 22.6053 0.028007 0.149646 8.819815
2009-09-21 12:38:46 51°39.591 2°41.675 22.6062 0.028109 0.150203 8.819815
2009-09-21 12:39:46 51°39.412 2°41.585 22.5818 0.028109 0.150206 8.819815
2009-09-21 12:40:46 51°39.234 2°41.491 22.6187 0.028007 0.149656 8.819815
2009-09-21 12:41:46 51°39.057 2°41.405 22.6418 0.028007 0.149663 8.819815
2009-09-21 12:42:46 51°38.881 2°41.322 22.6256 0.028212 0.150783 8.819815
2009-09-21 12:43:46 51°38.704 2°41.233 22.6132 0.028109 0.150223 8.819815
2009-09-21 12:44:46 51°38.528 2°41.144 22.6656 0.028007 0.149653 8.819815
2009-09-21 12:45:46 51°38.354 2°41.054 22.663 0.028315 0.151316 8.854639
2009-09-21 12:46:46 51°38.181 2°40.963 22.671 0.028418 0.151842 8.819815
2009-09-21 12:47:46 51°38.012 2°40.858 22.6391 0.028007 0.149653 8.854639
2009-09-21 12:48:46 51°37.843 2°40.753 22.6833 0.028007 0.149661 8.854639
2009-09-21 12:49:46 51°37.676 2°40.643 22.6947 0.028007 0.149641 8.854639
2009-09-21 12:50:46 51°37.508 2°40.541 22.6909 0.028007 0.149626 8.854639
2009-09-21 12:51:46 51°37.342 2°40.435 22.5962 0.027904 0.149098 8.993935
2009-09-21 12:52:46 51°37.175 2°40.333 22.6208 0.028007 0.149685 9.028759
2009-09-21 12:53:46 51°37.009 2°40.228 22.784 0.029241 0.156315 8.993935
2009-09-21 12:54:46 51°36.844 2°40.123 22.7458 0.02955 0.157947 8.993935
2009-09-21 12:55:46 51°36.678 2°40.015 22.7522 0.029447 0.157403 9.028759
2009-09-21 12:56:46 51°36.51 2°39.918 22.7612 0.029447 0.157416 9.063583
2009-09-21 12:57:46 51°36.342 2°39.827 22.7673 0.030168 0.16131 9.098407
2009-09-21 12:58:46 51°36.173 2°39.74 22.7658 0.029756 0.159035 9.168055
2009-09-21 12:59:46 51°36.004 2°39.648 22.7859 0.029241 0.156248 9.237704
2009-09-21 13:00:46 51°35.837 2°39.556 22.7773 0.028624 0.152935 9.307352
2009-09-21 13:01:46 51°35.669 2°39.466 22.7952 0.029447 0.157354 9.377
2009-09-21 13:02:46 51°35.502 2°39.374 22.8005 0.028521 0.152395 9.411824
2009-09-21 13:03:46 51°35.336 2°39.285 22.788 0.029138 0.155705 9.481472
2009-09-21 13:04:46 51°35.17 2°39.198 22.8037 0.02955 0.157908 9.55112
2009-09-21 13:05:46 51°35.004 2°39.111 22.8073 0.029447 0.157369 9.620768
2009-09-21 13:06:46 51°34.84 2°39.019 22.8164 0.029447 0.157372 9.690416
2009-09-21 13:07:46 51°34.675 2°38.929 22.8179 0.029344 0.156792 9.794888
2009-09-21 13:08:46 51°34.509 2°38.846 22.8114 0.029241 0.156238 9.864537
2009-09-21 13:09:46 51°34.347 2°38.751 22.8422 0.029344 0.156761 9.969009
2009-09-21 13:10:46 51°34.186 2°38.651 22.8556 0.029447 0.157315 10.073481
2009-09-21 13:11:46 51°34.025 2°38.555 22.8528 0.029241 0.1562 10.143129
2009-09-21 13:12:46 51°33.864 2°38.459 22.8594 0.02883 0.153984 10.247601
2009-09-21 13:13:46 51°33.703 2°38.363 22.8678 0.02955 0.157835 10.352073
2009-09-21 13:14:46 51°33.543 2°38.265 22.8789 0.029036 0.155067 10.456545
2009-09-21 13:15:46 51°33.384 2°38.167 22.884 0.029241 0.156171 10.561018
2009-09-21 13:16:46 51°33.223 2°38.07 22.8441 0.029241 0.156166 10.66549
2009-09-21 13:17:46 51°33.062 2°37.975 22.8967 0.029241 0.156161 10.769962
2009-09-21 13:18:46 51°32.9 2°37.882 22.878 0.029447 0.157248 10.909258
2009-09-21 13:19:46 51°32.74 2°37.784 22.9149 0.029447 0.15723 11.01373
2009-09-21 13:20:46 51°32.577 2°37.695 22.9103 0.029447 0.157224 11.153027
2009-09-21 13:21:46 51°32.413 2°37.617 22.9063 0.028624 0.152812 11.327147
2009-09-21 13:22:46 51°32.249 2°37.537 22.9266 0.029344 0.156661 11.466443
2009-09-21 13:23:46 51°32.086 2°37.454 22.9177 0.028933 0.154446 11.605739
2009-09-21 13:24:46 51°31.922 2°37.375 22.9389 0.029653 0.158308 11.745035
2009-09-21 13:25:46 51°31.758 2°37.299 22.9597 0.029859 0.159413 11.884332
2009-09-21 13:26:46 51°31.594 2°37.219 22.9526 0.02955 0.157739 12.058452
2009-09-21 13:27:46 51°31.431 2°37.137 22.9292 0.029036 0.154983 12.197748
2009-09-21 13:28:46 51°31.268 2°37.053 22.9549 0.029756 0.158828 12.371868
2009-09-21 13:29:46 51°31.104 2°36.975 22.9726 0.029241 0.156071 12.476341
2009-09-21 13:30:46 51°30.94 2°36.899 22.9796 0.029756 0.158812 12.650461
2009-09-21 13:31:46 51°30.777 2°36.822 22.9809 0.029756 0.158799 12.824581
2009-09-21 13:32:46 51°30.614 2°36.744 22.9869 0.029447 0.157124 12.963877
2009-09-21 13:33:46 51°30.451 2°36.667 22.9867 0.029036 0.15491 13.103174
2009-09-21 13:34:46 51°30.288 2°36.59 22.9893 0.029241 0.15601 13.277294
2009-09-21 13:35:46 51°30.125 2°36.516 22.984 0.029138 0.155472 13.41659
2009-09-21 13:36:46 51°29.96 2°36.462 22.9972 0.029138 0.155449 13.555886
2009-09-21 13:37:46 51°29.794 2°36.409 22.9973 0.029036 0.154894 13.695182
2009-09-21 13:38:46 51°29.629 2°36.352 23.0146 0.02955 0.15763 13.869303
2009-09-21 13:39:46 51°29.463 2°36.299 23.0275 0.029241 0.155984 14.008599
2009-09-21 13:40:46 51°29.297 2°36.245 23.0237 0.029241 0.155972 14.147895
2009-09-21 13:41:46 51°29.13 2°36.198 22.9974 0.029241 0.155964 14.322015
2009-09-21 13:42:46 51°28.963 2°36.149 23.0359 0.028624 0.15264 14.461312
2009-09-21 13:43:46 51°28.798 2°36.1 23.0296 0.029344 0.156496 14.600608
2009-09-21 13:44:46 51°28.632 2°36.125 23.0689 0.029036 0.154836 14.739904
2009-09-21 13:45:46 51°28.477 2°36.29 23.0529 0.028521 0.152078 14.844376
2009-09-21 13:46:46 51°28.338 2°36.509 23.0569 0.028727 0.153172 14.983672
2009-09-21 13:47:46 51°28.201 2°36.729 23.0514 0.028521 0.152096 15.088145
2009-09-21 13:48:46 51°28.065 2°36.95 23.0453 0.029138 0.155391 15.227441
2009-09-21 13:49:46 51°27.93 2°37.009 23.0358 0.030476 0.162594 15.331913
2009-09-21 13:50:46 51°27.919 2°36.78 23.0756 0.031505 0.168096 15.471209
2009-09-21 13:51:46 51°27.982 2°36.53 23.0891 0.030373 0.161984 15.610505
2009-09-21 13:52:46 51°28.081 2°36.295 23.0741 0.029859 0.159209 15.714978
2009-09-21 13:53:46 51°28.178 2°36.06 23.0647 0.029138 0.155335 15.854274
2009-09-21 13:54:46 51°28.277 2°35.829 23.0929 0.029447 0.156982 15.958746
2009-09-21 13:55:46 51°28.393 2°35.611 23.1022 0.028624 0.152573 16.098042
2009-09-21 13:56:46 51°28.519 2°35.401 23.1056 0.028521 0.152024 16.202514
2009-09-21 13:57:46 51°28.599 2°35.181 23.1119 0.028624 0.15259 16.341811
2009-09-21 13:58:46 51°28.509 2°35.043 23.1196 0.028624 0.15254 16.446283
2009-09-21 13:59:46 51°28.353 2°35.093 23.1209 0.02883 0.153669 16.550755
2009-09-21 14:00:46 51°28.212 2°35.277 23.1287 0.031402 0.167489 16.585579
2009-09-21 14:01:46 51°28.092 2°35.518 23.1232 0.030579 0.163062 16.724875
2009-09-21 14:02:46 51°27.992 2°35.796 23.1213 0.029859 0.159209 16.829347
2009-09-21 14:03:46 51°27.906 2°36.093 23.1311 0.029138 0.15534 16.933819
2009-09-21 14:04:46 51°27.822 2°36.391 23.1428 0.029036 0.154795 17.038292
2009-09-21 14:05:46 51°27.741 2°36.688 23.1599 0.02883 0.153696 17.142764
2009-09-21 14:06:46 51°27.659 2°36.986 23.1625 0.02883 0.153716 17.28206
2009-09-21 14:07:46 51°27.578 2°37.284 23.1503 0.028624 0.1526 17.351708
2009-09-21 14:08:46 51°27.492 2°37.576 23.162 0.029756 0.158684 17.45618
2009-09-21 14:09:46 51°27.4 2°37.863 23.1555 0.02883 0.153701 17.560652
2009-09-21 14:10:46 51°27.294 2°38.129 23.1794 0.029138 0.155348 17.630301
2009-09-21 14:11:46 51°27.175 2°38.372 23.1698 0.029241 0.15591 17.699949
2009-09-21 14:12:46 51°27.042 2°38.587 23.1806 0.029859 0.159219 17.804421
2009-09-21 14:13:46 51°26.906 2°38.801 23.1809 0.029653 0.1581 17.908893
2009-09-21 14:14:46 51°26.768 2°39.012 23.1918 0.029756 0.158645 17.978541
2009-09-21 14:15:46 51°26.631 2°39.225 23.1859 0.029756 0.158635 18.048189
2009-09-21 14:16:46 51°26.497 2°39.446 23.2115 0.02955 0.157511 18.152661
2009-09-21 14:17:46 51°26.361 2°39.664 23.2137 0.029756 0.158609 18.222309
2009-09-21 14:18:46 51°26.225 2°39.884 23.2219 0.029036 0.154752 18.291958
2009-09-21 14:19:46 51°26.087 2°40.101 23.2128 0.02955 0.157496 18.361606
2009-09-21 14:20:46 51°25.953 2°40.319 23.2367 0.029756 0.158588 18.431254
2009-09-21 14:21:46 51°25.823 2°40.54 23.2369 0.029344 0.156373 18.500902
2009-09-21 14:22:46 51°25.691 2°40.759 23.2484 0.029756 0.158557 18.605374
2009-09-21 14:23:46 51°25.557 2°40.973 23.241 0.029241 0.155808 18.640198
2009-09-21 14:24:46 51°25.423 2°41.186 23.2488 0.02955 0.157444 18.709846
2009-09-21 14:25:46 51°25.289 2°41.398 23.2617 0.029344 0.156332 18.779494
2009-09-21 14:26:46 51°25.154 2°41.61 23.2512 0.029653 0.157978 18.849142
2009-09-21 14:27:46 51°25.02 2°41.822 23.2543 0.02955 0.157426 18.918791
2009-09-21 14:28:46 51°24.886 2°42.032 23.2814 0.029653 0.157971 18.988439
2009-09-21 14:29:46 51°24.75 2°42.24 23.2633 0.029756 0.15851 19.023263
2009-09-21 14:30:46 51°24.615 2°42.451 23.272 0.029344 0.156306 19.092911
2009-09-21 14:31:46 51°24.48 2°42.663 23.2955 0.029859 0.159044 19.127735
2009-09-21 14:32:46 51°24.346 2°42.876 23.3012 0.029653 0.157932 19.162559
2009-09-21 14:33:46 51°24.21 2°43.092 23.2747 0.029344 0.156278 19.267031
2009-09-21 14:34:46 51°24.074 2°43.305 23.3052 0.029756 0.158466 19.301855
2009-09-21 14:35:46 51°23.929 2°43.498 23.3056 0.029962 0.159563 19.371503
2009-09-21 14:36:46 51°23.782 2°43.689 23.3236 0.03027 0.161202 19.406327
2009-09-21 14:37:46 51°23.634 2°43.879 23.3242 0.029962 0.15955 19.441151
2009-09-21 14:38:46 51°23.488 2°44.072 23.3202 0.029962 0.159542 19.510799
2009-09-21 14:39:46 51°23.342 2°44.265 23.3357 0.029962 0.15951 19.580448
2009-09-21 14:40:46 51°23.195 2°44.454 23.3396 0.029859 0.158945 19.615272
2009-09-21 14:41:46 51°23.049 2°44.644 23.3427 0.029653 0.157836 19.650096
2009-09-21 14:42:46 51°22.901 2°44.832 23.347 0.028933 0.153971 19.719744
2009-09-21 14:43:46 51°22.753 2°45.014 23.3609 0.029447 0.156715 19.754568
2009-09-21 14:44:46 51°22.605 2°45.199 23.3609 0.029241 0.155617 19.824216
2009-09-21 14:45:46 51°22.457 2°45.382 23.353 0.028933 0.153959 19.85904
2009-09-21 14:46:46 51°22.307 2°45.563 23.3576 0.02955 0.157246 19.893864
2009-09-21 14:47:46 51°22.159 2°45.747 23.3606 0.029344 0.156133 19.928688
2009-09-21 14:48:46 51°22.003 2°45.901 23.376 0.029653 0.157782 19.963512
2009-09-21 14:49:46 51°21.842 2°46.035 23.3592 0.029447 0.156674 19.998336
2009-09-21 14:50:46 51°21.682 2°46.176 23.3937 0.029653 0.157759 20.067984
2009-09-21 14:51:46 51°21.523 2°46.318 23.3857 0.029756 0.158313 20.102808
2009-09-21 14:52:46 51°21.369 2°46.484 23.4098 0.029756 0.158302 20.137632
2009-09-21 14:53:46 51°21.217 2°46.656 23.4111 0.03027 0.161043 20.172456
2009-09-21 14:54:46 51°21.071 2°46.849 23.4034 0.02955 0.157171 20.207281
2009-09-21 14:55:46 51°20.925 2°47.041 23.4294 0.029859 0.158825 20.276929
2009-09-21 14:56:46 51°20.777 2°47.235 23.3721 0.029036 0.154414 20.311753
2009-09-21 14:57:46 51°20.636 2°47.442 23.4271 0.029241 0.155503 20.346577
2009-09-21 14:58:46 51°20.497 2°47.652 23.4354 0.029859 0.158779 20.381401
2009-09-21 14:59:46 51°20.355 2°47.858 23.4277 0.029447 0.156582 20.416225
2009-09-21 15:00:46 51°20.216 2°48.068 23.4078 0.029241 0.155472 20.451049
2009-09-21 15:01:46 51°20.079 2°48.281 23.4507 0.029859 0.158745 20.485873
2009-09-21 15:02:46 51°19.941 2°48.492 23.4659 0.030065 0.159853 20.555521
2009-09-21 15:03:46 51°19.807 2°48.707 23.4445 0.02955 0.157094 20.590345
2009-09-21 15:04:46 51°19.673 2°48.922 23.4445 0.028727 0.15267 20.625169
2009-09-21 15:05:46 51°19.54 2°49.137 23.4586 0.029344 0.155969 20.659993
2009-09-21 15:06:46 51°19.405 2°49.349 23.4566 0.029344 0.155959 20.659993
2009-09-21 15:07:46 51°19.268 2°49.562 23.4863 0.028933 0.153748 20.694817
2009-09-21 15:08:46 51°19.131 2°49.772 23.477 0.02955 0.15703 20.729641
2009-09-21 15:09:46 51°18.994 2°49.982 23.4943 0.029241 0.155378 20.799289
2009-09-21 15:10:46 51°18.86 2°50.195 23.5089 0.029756 0.158106 20.799289
2009-09-21 15:11:46 51°18.726 2°50.409 23.4934 0.029859 0.158649 20.868938
2009-09-21 15:12:46 51°18.591 2°50.625 23.514 0.028727 0.152603 20.903762
2009-09-21 15:13:46 51°18.456 2°50.835 23.513 0.029756 0.15808 20.938586
2009-09-21 15:14:46 51°18.319 2°51.04 23.5124 0.02883 0.153148 20.938586
2009-09-21 15:15:46 51°18.183 2°51.243 23.481 0.029036 0.154223 20.97341
2009-09-21 15:16:46 51°18.041 2°51.427 23.5337 0.030065 0.159725 21.008234
2009-09-21 15:17:46 51°17.896 2°51.601 23.5317 0.029344 0.155855 21.043058
2009-09-21 15:18:46 51°17.746 2°51.758 23.5326 0.030373 0.161336 21.077882
2009-09-21 15:19:46 51°17.596 2°51.912 23.5392 0.029653 0.157504 21.077882
2009-09-21 15:20:46 51°17.445 2°52.068 23.5337 0.030065 0.159678 21.112706
2009-09-21 15:21:46 51°17.292 2°52.217 23.5495 0.029138 0.154735 21.14753
2009-09-21 15:22:46 51°17.135 2°52.357 23.5375 0.029036 0.154175 21.182354
2009-09-21 15:23:46 51°16.977 2°52.497 23.5363 0.029036 0.154155 21.217178
2009-09-21 15:24:46 51°16.822 2°52.646 23.5808 0.030065 0.159623 21.252002
2009-09-21 15:25:46 51°16.668 2°52.797 23.5816 0.028933 0.15358 21.286826
2009-09-21 15:26:46 51°16.512 2°52.949 23.5804 0.028521 0.151362 21.32165
2009-09-21 15:27:46 51°16.357 2°53.099 23.5634 0.028727 0.152477 21.32165
2009-09-21 15:28:46 51°16.2 2°53.248 23.5621 0.029447 0.156308 21.356474
2009-09-21 15:29:46 51°16.043 2°53.398 23.5937 0.029447 0.15628 21.391298
2009-09-21 15:30:46 51°15.883 2°53.544 23.5684 0.03027 0.160693 21.426122
2009-09-21 15:31:46 51°15.724 2°53.694 23.5867 0.029653 0.15737 21.460946
2009-09-21 15:32:46 51°15.593 2°53.82 23.5999 0.029036 0.154052 21.495771
2009-09-21 15:33:46 51°15.512 2°53.902 23.6152 0.030168 0.160098 21.495771
2009-09-21 15:34:46 51°15.441 2°53.984 23.6276 0.030579 0.162301 21.530595
2009-09-21 15:35:46 51°15.351 2°54.08 23.6155 0.030579 0.162272 21.565419
2009-09-21 15:36:46 51°15.251 2°54.186 23.6592 0.030168 0.160053 21.600243
2009-09-21 15:37:46 51°15.141 2°54.292 23.6391 0.029653 0.157285 21.635067
2009-09-21 15:38:46 51°15.029 2°54.399 23.6445 0.030168 0.160027 21.669891
2009-09-21 15:39:46 51°14.901 2°54.522 23.629 0.029241 0.155045 21.669891
2009-09-21 15:40:46 51°14.755 2°54.66 23.6581 0.029036 0.153965 21.704715
2009-09-21 15:41:46 51°14.598 2°54.806 23.6481 0.028727 0.152301 21.704715
2009-09-21 15:42:46 51°14.442 2°54.964 23.6374 0.029447 0.156135 21.739539
2009-09-21 15:43:46 51°14.309 2°55.168 23.6705 0.028624 0.151748 21.774363
2009-09-21 15:44:46 51°14.19 2°55.357 23.6293 0.029138 0.154463 21.774363
2009-09-21 15:45:46 51°14.076 2°55.452 23.6679 0.030065 0.15942 21.809187
2009-09-21 15:46:46 51°13.966 2°55.529 23.6683 0.029756 0.157743 21.844011
2009-09-21 15:47:46 51°13.865 2°55.601 23.6805 0.030065 0.159376 21.844011
2009-09-21 15:48:46 51°13.775 2°55.678 23.7133 0.030373 0.16102 21.913659
2009-09-21 15:49:46 51°13.72 2°55.778 23.6847 0.03027 0.160447 21.948483
2009-09-21 15:50:46 51°13.683 2°55.871 23.6971 0.030373 0.160989 21.948483
2009-09-21 15:51:50 51°13.668 2°55.941 23.7026 0.030167 0.159863 21.983307
2009-09-21 15:52:50 51°13.663 2°55.958 23.7267 0.02955 0.156815 22.018131
2009-09-21 15:53:50 51°13.662 2°55.958 23.7173 0.030168 0.160218 22.052955
2009-09-21 15:54:50 51°13.663 2°55.958 23.7369 0.030373 0.161191 22.087779